Bonney, Texas
Current Conditions -  °F | °C
As of 8:53 AM on Wednesday 22 Oct 2014 (Local Time) from KLBX Reporting Station
Clear Clear  
Wind Chill: 69°   Ceiling: Unl
Heat Index: 69°   Visibility: 10mi
Dew Point: 65°   Wind: 7mph
Humidity: 87%   Direction: 50°NE
Pressure: 30.07"   Gusts: NA
Location:  29.1898°N, 95.4754°W
Report Text: KLBX 221353Z AUTO 05006KT 10SM CLR 21/18 A3007 RMK AO2 SLP182 T02060183
Loading
Personal Weather Stations






























Interactive Weather Map
Tropical Storm Tracking
New forecast layout! Learn more

10-Day Weather Forecast

Advertisements
Track Severe Weather on mobile